Time;durP1;ratioP1;P1;durP2;ratioP2;P2;SDS_P1;SDS_P2;PMS_P1;PMS_P2;Temp;Humidity;BMP_temperature;BMP_pressure;BME280_temperature;BME280_humidity;BME280_pressure;Samples;Min_cycle;Max_cycle;Signal;HPM_P1;HPM_P2
2021/05/13 00:02:22;;;;;;;10.20;9.20;;;;;;;;;;6285256;22;20413;-95
2021/05/13 00:04:48;;;;;;;9.07;8.17;;;;;;;;;;6285198;22;20405;-95
2021/05/13 00:07:14;;;;;;;10.50;9.00;;;;;;;;;;6287848;22;20482;-96
2021/05/13 00:09:42;;;;;;;10.13;9.23;;;;;;;;;;6286254;22;20413;-95
2021/05/13 00:12:15;;;;;;;11.13;9.87;;;;;;;;;;6287076;22;20427;-96
2021/05/13 00:14:41;;;;;;;10.50;9.43;;;;;;;;;;6288729;22;20420;-96
2021/05/13 00:17:07;;;;;;;10.47;9.40;;;;;;;;;;6288391;22;20460;-96
2021/05/13 00:19:33;;;;;;;9.73;8.73;;;;;;;;;;6289576;22;20401;-96
2021/05/13 00:21:59;;;;;;;11.33;8.87;;;;;;;;;;6286099;22;20413;-94
2021/05/13 00:24:25;;;;;;;9.60;8.67;;;;;;;;;;6285167;22;20409;-95
2021/05/13 00:26:58;;;;;;;9.30;8.40;;;;;;;;;;6298342;22;20474;-95
2021/05/13 00:29:26;;;;;;;8.93;7.63;;;;;;;;;;6318374;22;20434;-96
2021/05/13 00:31:52;;;;;;;9.87;8.40;;;;;;;;;;6317282;22;20434;-96
2021/05/13 00:34:18;;;;;;;9.90;8.90;;;;;;;;;;6317249;22;20404;-95
2021/05/13 00:36:44;;;;;;;9.73;8.83;;;;;;;;;;6314861;22;20452;-95
2021/05/13 00:39:10;;;;;;;9.30;8.40;;;;;;;;;;6319441;22;20404;-95
2021/05/13 00:41:37;;;;;;;9.27;8.33;;;;;;;;;;6320340;22;20419;-96
2021/05/13 00:44:05;;;;;;;12.27;9.27;;;;;;;;;;6325627;22;20396;-96
2021/05/13 00:52:14;;;;;;;9.10;8.17;;;;;;;;;;6315378;22;20555;-96
2021/05/13 00:54:41;;;;;;;9.23;8.27;;;;;;;;;;6322226;22;20439;-96
2021/05/13 00:57:08;;;;;;;9.17;8.20;;;;;;;;;;6326526;22;20955;-97
2021/05/13 00:59:39;;;;;;;9.37;8.30;;;;;;;;;;6300433;22;20415;-96
2021/05/13 01:02:06;;;;;;;9.63;8.60;;;;;;;;;;6319505;22;20405;-96
2021/05/13 01:04:32;;;;;;;9.90;8.20;;;;;;;;;;6317285;22;20412;-96
2021/05/13 01:06:58;;;;;;;8.40;7.60;;;;;;;;;;6315294;22;20439;-96
2021/05/13 01:09:26;;;;;;;13.27;8.43;;;;;;;;;;6317448;22;20511;-96
2021/05/13 01:11:55;;;;;;;9.83;8.43;;;;;;;;;;6318223;22;20443;-96
2021/05/13 01:14:23;;;;;;;9.33;8.20;;;;;;;;;;6315283;22;20782;-96
2021/05/13 01:16:53;;;;;;;12.10;8.57;;;;;;;;;;6317371;22;20451;-96
2021/05/13 01:19:19;;;;;;;8.97;8.17;;;;;;;;;;6315880;22;20404;-96
2021/05/13 01:21:47;;;;;;;9.37;8.57;;;;;;;;;;6316828;22;20413;-96
2021/05/13 01:24:13;;;;;;;9.20;8.40;;;;;;;;;;6315588;22;20435;-96
2021/05/13 01:26:42;;;;;;;10.63;9.47;;;;;;;;;;6317249;22;20412;-96
2021/05/13 01:29:08;;;;;;;11.40;9.87;;;;;;;;;;6317444;22;20411;-96
2021/05/13 01:31:34;;;;;;;10.90;9.77;;;;;;;;;;6318807;22;20405;-96
2021/05/13 01:34:00;;;;;;;12.67;10.13;;;;;;;;;;6316602;22;20411;-96
2021/05/13 01:36:26;;;;;;;11.40;10.40;;;;;;;;;;6318189;22;20448;-96
2021/05/13 01:38:56;;;;;;;10.97;9.97;;;;;;;;;;6318052;22;20407;-96
2021/05/13 01:41:22;;;;;;;10.70;9.80;;;;;;;;;;6319772;22;20461;-96
2021/05/13 01:43:48;;;;;;;12.50;11.20;;;;;;;;;;6316399;22;20400;-96
2021/05/13 01:46:14;;;;;;;12.10;11.00;;;;;;;;;;6317123;22;20419;-96
2021/05/13 01:48:41;;;;;;;11.80;10.60;;;;;;;;;;6316725;22;20490;-96
2021/05/13 01:51:07;;;;;;;12.50;11.20;;;;;;;;;;6316739;22;20439;-96
2021/05/13 01:53:33;;;;;;;15.10;11.40;;;;;;;;;;6317709;22;20423;-96
2021/05/13 01:56:00;;;;;;;12.93;11.60;;;;;;;;;;6318221;22;20932;-96
2021/05/13 01:58:26;;;;;;;13.83;10.63;;;;;;;;;;6317720;22;20404;-96
2021/05/13 02:00:52;;;;;;;11.93;10.43;;;;;;;;;;6317102;22;20400;-96
2021/05/13 02:03:18;;;;;;;11.20;10.10;;;;;;;;;;6314464;22;20396;-96
2021/05/13 02:05:45;;;;;;;13.90;10.83;;;;;;;;;;6316362;22;20536;-96
2021/05/13 02:08:11;;;;;;;17.20;9.97;;;;;;;;;;6318219;22;20412;-96
2021/05/13 02:10:37;;;;;;;11.13;10.03;;;;;;;;;;6316734;22;20403;-96
2021/05/13 02:13:04;;;;;;;12.83;10.10;;;;;;;;;;6319219;22;20415;-96
2021/05/13 02:15:30;;;;;;;11.93;10.23;;;;;;;;;;6316813;22;20473;-96
2021/05/13 02:17:56;;;;;;;11.20;9.93;;;;;;;;;;6317708;22;20433;-96
2021/05/13 02:20:23;;;;;;;11.10;10.10;;;;;;;;;;6317808;22;20465;-96
2021/05/13 02:22:49;;;;;;;15.20;10.77;;;;;;;;;;6318841;22;20411;-96
2021/05/13 02:25:15;;;;;;;11.50;10.00;;;;;;;;;;6318114;22;20411;-96
2021/05/13 02:30:36;;;;;;;9.73;8.77;;;;;;;;;;6336482;22;20559;-96
2021/05/13 02:33:02;;;;;;;10.47;9.40;;;;;;;;;;6321461;22;20416;-96
2021/05/13 02:35:28;;;;;;;16.07;8.70;;;;;;;;;;6327579;22;20446;-96
2021/05/13 02:37:54;;;;;;;11.13;9.97;;;;;;;;;;6318795;22;20404;-96
2021/05/13 02:40:20;;;;;;;10.03;9.13;;;;;;;;;;6319844;22;20432;-96
2021/05/13 02:42:46;;;;;;;10.23;9.17;;;;;;;;;;6320432;22;20404;-96
2021/05/13 02:45:13;;;;;;;9.30;8.40;;;;;;;;;;6319786;22;20404;-96
2021/05/13 02:47:40;;;;;;;12.10;10.00;;;;;;;;;;6317382;22;20401;-96
2021/05/13 02:50:07;;;;;;;11.90;10.10;;;;;;;;;;6318601;22;20416;-96
2021/05/13 02:52:33;;;;;;;10.20;9.00;;;;;;;;;;6318555;22;20404;-96
2021/05/13 02:54:59;;;;;;;9.30;8.40;;;;;;;;;;6319481;22;20696;-96
2021/05/13 02:57:25;;;;;;;12.20;8.90;;;;;;;;;;6316999;22;20451;-96
2021/05/13 02:59:59;;;;;;;13.80;9.93;;;;;;;;;;6319174;22;20404;-96
2021/05/13 03:02:25;;;;;;;9.53;8.60;;;;;;;;;;6317162;22;20412;-95
2021/05/13 03:04:52;;;;;;;9.83;8.93;;;;;;;;;;6317673;22;20408;-95
2021/05/13 03:07:18;;;;;;;10.63;9.50;;;;;;;;;;6317112;22;20408;-95
2021/05/13 03:09:47;;;;;;;13.40;12.03;;;;;;;;;;6317480;22;20540;-96
2021/05/13 03:12:13;;;;;;;11.10;9.10;;;;;;;;;;6315981;22;20416;-96
2021/05/13 03:14:39;;;;;;;10.47;9.07;;;;;;;;;;6319087;22;20490;-93
2021/05/13 03:17:05;;;;;;;11.90;9.33;;;;;;;;;;6309773;22;20456;-93
2021/05/13 03:19:38;;;;;;;11.90;10.70;;;;;;;;;;6316589;22;20487;-91
2021/05/13 03:22:08;;;;;;;12.20;10.90;;;;;;;;;;6309300;22;20435;-92
2021/05/13 03:24:40;;;;;;;12.17;10.97;;;;;;;;;;6317841;22;20408;-93
2021/05/13 03:27:11;;;;;;;16.70;12.50;;;;;;;;;;6318437;22;20415;-94
2021/05/13 03:29:37;;;;;;;12.07;10.83;;;;;;;;;;6317003;22;20419;-93
2021/05/13 03:32:03;;;;;;;12.30;9.87;;;;;;;;;;6317784;22;20507;-93
2021/05/13 03:34:29;;;;;;;15.27;11.27;;;;;;;;;;6314407;22;20419;-92
2021/05/13 03:36:55;;;;;;;12.40;10.17;;;;;;;;;;6317989;22;20455;-93
2021/05/13 03:39:22;;;;;;;13.20;11.60;;;;;;;;;;6315582;22;20496;-94
2021/05/13 03:41:48;;;;;;;13.43;12.13;;;;;;;;;;6316912;22;20473;-95
2021/05/13 03:44:14;;;;;;;13.10;11.70;;;;;;;;;;6315841;22;20404;-95
2021/05/13 03:46:40;;;;;;;12.93;11.53;;;;;;;;;;6316031;22;20412;-96
2021/05/13 03:49:06;;;;;;;12.13;10.90;;;;;;;;;;6316632;22;20404;-95
2021/05/13 03:51:32;;;;;;;12.50;11.27;;;;;;;;;;6319447;22;20476;-96
2021/05/13 03:53:58;;;;;;;12.60;11.30;;;;;;;;;;6318266;22;20408;-95
2021/05/13 03:56:25;;;;;;;17.40;12.10;;;;;;;;;;6322301;22;20503;-96
2021/05/13 03:58:55;;;;;;;13.20;11.77;;;;;;;;;;6329029;22;20404;-96
2021/05/13 04:01:31;;;;;;;14.73;11.00;;;;;;;;;;6326705;22;20410;-93
2021/05/13 04:03:57;;;;;;;15.13;10.70;;;;;;;;;;6330898;22;20388;-93
2021/05/13 04:06:23;;;;;;;11.73;10.40;;;;;;;;;;6322596;22;20405;-95
2021/05/13 04:08:50;;;;;;;10.83;9.83;;;;;;;;;;6321682;22;20400;-96
2021/05/13 04:11:16;;;;;;;12.90;10.10;;;;;;;;;;6295172;22;20408;-94
2021/05/13 04:13:44;;;;;;;12.33;9.97;;;;;;;;;;6317888;22;20414;-94
2021/05/13 04:16:10;;;;;;;16.50;11.40;;;;;;;;;;6315373;22;21200;-96
2021/05/13 04:18:36;;;;;;;14.53;11.50;;;;;;;;;;6317766;22;20427;-96
2021/05/13 04:21:02;;;;;;;12.40;11.10;;;;;;;;;;6317711;22;20408;-96
2021/05/13 04:23:28;;;;;;;12.33;11.13;;;;;;;;;;6318001;22;20404;-96
2021/05/13 04:25:54;;;;;;;12.13;10.93;;;;;;;;;;6315923;22;20438;-96
2021/05/13 04:28:20;;;;;;;11.43;10.23;;;;;;;;;;6317246;22;20400;-96
2021/05/13 04:30:47;;;;;;;12.70;11.40;;;;;;;;;;6316939;22;20446;-96
2021/05/13 04:33:13;;;;;;;18.13;12.37;;;;;;;;;;6319145;22;20407;-96
2021/05/13 04:35:39;;;;;;;13.50;11.60;;;;;;;;;;6316678;22;20431;-96
2021/05/13 04:38:05;;;;;;;15.23;13.07;;;;;;;;;;6317602;22;20762;-95
2021/05/13 04:40:32;;;;;;;15.03;13.50;;;;;;;;;;6315603;22;20421;-96
2021/05/13 04:42:58;;;;;;;14.40;12.30;;;;;;;;;;6326432;22;20384;-97
2021/05/13 04:45:25;;;;;;;14.40;12.53;;;;;;;;;;6320269;22;20430;-95
2021/05/13 04:48:06;;;;;;;16.90;12.70;;;;;;;;;;6319895;22;20412;-96
2021/05/13 04:50:32;;;;;;;17.47;13.27;;;;;;;;;;6319944;22;20411;-96
2021/05/13 04:53:01;;;;;;;13.60;12.07;;;;;;;;;;6318909;22;20434;-96
2021/05/13 04:55:27;;;;;;;14.00;12.53;;;;;;;;;;6322737;22;20416;-96
2021/05/13 04:57:54;;;;;;;16.33;12.70;;;;;;;;;;6322042;22;20396;-96
2021/05/13 05:02:56;;;;;;;15.00;13.10;;;;;;;;;;6318595;22;20443;-96
2021/05/13 05:05:22;;;;;;;21.33;12.97;;;;;;;;;;6321277;22;20409;-96
2021/05/13 05:07:48;;;;;;;14.63;11.50;;;;;;;;;;6318369;22;20400;-96
2021/05/13 05:10:17;;;;;;;13.17;11.87;;;;;;;;;;6321556;22;20403;-97
2021/05/13 05:12:43;;;;;;;14.20;11.93;;;;;;;;;;6333987;22;20400;-94
2021/05/13 05:17:49;;;;;;;17.00;11.13;;;;;;;;;;6230309;23;20459;-96
2021/05/13 05:20:50;;;;;;;11.67;10.47;;;;;;;;;;6242890;23;20403;-96
2021/05/13 05:23:18;;;;;;;14.30;11.23;;;;;;;;;;6253797;22;20432;-96
2021/05/13 05:25:46;;;;;;;12.50;10.70;;;;;;;;;;6332445;22;20415;-96
2021/05/13 05:28:14;;;;;;;12.33;10.20;;;;;;;;;;6330859;22;20447;-96
2021/05/13 05:30:41;;;;;;;11.57;10.37;;;;;;;;;;6308514;22;20403;-96
2021/05/13 05:33:07;;;;;;;13.40;11.63;;;;;;;;;;6325482;22;20456;-96
2021/05/13 05:35:34;;;;;;;12.87;11.67;;;;;;;;;;6322618;22;20412;-96
2021/05/13 05:38:00;;;;;;;14.57;13.03;;;;;;;;;;6300569;22;20451;-96
2021/05/13 05:40:28;;;;;;;13.27;11.77;;;;;;;;;;6315863;22;20407;-96
2021/05/13 05:45:40;;;;;;;11.90;10.80;;;;;;;;;;6318505;22;20407;-96
2021/05/13 05:53:14;;;;;;;21.00;10.97;;;;;;;;;;6235122;23;20430;-96
2021/05/13 05:56:08;;;;;;;13.40;11.43;;;;;;;;;;6242916;23;20465;-96
2021/05/13 05:58:45;;;;;;;13.73;11.90;;;;;;;;;;6279626;22;20443;-96
2021/05/13 06:03:50;;;;;;;16.40;11.93;;;;;;;;;;6329104;22;20419;-96
2021/05/13 06:09:01;;;;;;;13.13;11.53;;;;;;;;;;6316169;22;20431;-96
2021/05/13 06:16:50;;;;;;;12.77;11.43;;;;;;;;;;6329966;22;20443;-96
2021/05/13 06:19:19;;;;;;;12.33;10.60;;;;;;;;;;6329535;22;20404;-96
2021/05/13 06:21:57;;;;;;;16.60;11.37;;;;;;;;;;6334717;22;20402;-96
2021/05/13 06:27:26;;;;;;;11.40;9.67;;;;;;;;;;6322383;22;20428;-96
2021/05/13 06:29:53;;;;;;;12.83;9.97;;;;;;;;;;6325594;22;20528;-96
2021/05/13 06:32:45;;;;;;;9.23;8.33;;;;;;;;;;6327815;22;20411;-96
2021/05/13 06:38:01;;;;;;;10.53;9.43;;;;;;;;;;6312500;22;20452;-96
2021/05/13 06:40:27;;;;;;;11.60;8.40;;;;;;;;;;6329088;22;20408;-96
2021/05/13 06:46:04;;;;;;;11.60;8.40;;;;;;;;;;6290394;22;20425;-96
2021/05/13 06:59:47;;;;;;;7.17;6.47;;;;;;;;;;6300560;22;21075;-96
2021/05/13 07:02:26;;;;;;;7.37;6.13;;;;;;;;;;6310171;22;20452;-96
2021/05/13 07:04:53;;;;;;;9.87;6.87;;;;;;;;;;6262268;22;20461;-94
2021/05/13 07:13:05;;;;;;;16.30;6.37;;;;;;;;;;6297253;22;20445;-96
2021/05/13 07:18:26;;;;;;;7.87;6.07;;;;;;;;;;6332777;22;20437;-95
2021/05/13 07:20:52;;;;;;;8.90;6.20;;;;;;;;;;6331670;22;20427;-93
2021/05/13 07:23:18;;;;;;;6.97;6.20;;;;;;;;;;6329707;22;20436;-94
2021/05/13 07:28:25;;;;;;;7.90;6.13;;;;;;;;;;6291017;22;20449;-93
2021/05/13 07:40:02;;;;;;;5.53;5.03;;;;;;;;;;6319190;22;20459;-96
2021/05/13 07:45:33;;;;;;;6.77;5.07;;;;;;;;;;6321055;22;20449;-96
2021/05/13 07:48:00;;;;;;;6.57;4.87;;;;;;;;;;6338589;22;20383;-92
2021/05/13 07:50:26;;;;;;;6.90;4.60;;;;;;;;;;6328160;22;20469;-92
2021/05/13 07:52:57;;;;;;;4.43;4.03;;;;;;;;;;6327400;22;20425;-96
2021/05/13 07:55:26;;;;;;;4.67;4.00;;;;;;;;;;6327583;22;20398;-97
2021/05/13 07:57:52;;;;;;;4.10;3.70;;;;;;;;;;6320283;22;20458;-96
2021/05/13 08:00:19;;;;;;;6.23;4.30;;;;;;;;;;6322572;22;20406;-96
2021/05/13 08:02:45;;;;;;;6.70;4.60;;;;;;;;;;6324170;22;20436;-96
2021/05/13 08:05:50;;;;;;;9.00;4.40;;;;;;;;;;6335809;22;20380;-91
2021/05/13 08:08:25;;;;;;;5.73;4.27;;;;;;;;;;6326301;22;20390;-96
2021/05/13 08:11:19;;;;;;;4.43;3.87;;;;;;;;;;6326335;22;20406;-96
2021/05/13 08:13:47;;;;;;;6.67;4.17;;;;;;;;;;6295695;22;20435;-96
2021/05/13 08:19:16;;;;;;;4.80;3.43;;;;;;;;;;6321521;22;20458;-96
2021/05/13 08:21:44;;;;;;;5.30;3.90;;;;;;;;;;6331252;22;20431;-96
2021/05/13 08:24:12;;;;;;;4.50;3.83;;;;;;;;;;6320519;22;20481;-96
2021/05/13 08:26:38;;;;;;;4.47;4.00;;;;;;;;;;6316420;22;20428;-96
2021/05/13 08:29:25;;;;;;;4.53;3.47;;;;;;;;;;6323805;22;20492;-96
2021/05/13 08:31:51;;;;;;;6.70;3.70;;;;;;;;;;6312656;22;20439;-93
2021/05/13 08:34:18;;;;;;;8.43;3.70;;;;;;;;;;6331430;22;20400;-96
2021/05/13 08:36:44;;;;;;;6.53;3.60;;;;;;;;;;6322278;22;20872;-96
2021/05/13 08:39:11;;;;;;;7.30;3.30;;;;;;;;;;6323661;22;20444;-95
2021/05/13 08:41:38;;;;;;;4.63;3.60;;;;;;;;;;6335115;22;20412;-96
2021/05/13 08:44:06;;;;;;;4.10;3.70;;;;;;;;;;6333065;22;20408;-96
2021/05/13 08:46:35;;;;;;;3.90;3.60;;;;;;;;;;6321872;22;20491;-96
2021/05/13 08:49:09;;;;;;;4.03;3.50;;;;;;;;;;6326562;22;20388;-96
2021/05/13 08:51:44;;;;;;;3.53;3.23;;;;;;;;;;6329290;22;20404;-96
2021/05/13 09:03:26;;;;;;;5.93;3.30;;;;;;;;;;6335865;22;20394;-97
2021/05/13 09:05:53;;;;;;;3.90;3.00;;;;;;;;;;6327798;22;20427;-96
2021/05/13 09:08:26;;;;;;;3.23;2.93;;;;;;;;;;6328789;22;20475;-96
2021/05/13 09:11:38;;;;;;;4.97;3.37;;;;;;;;;;6331356;22;20440;-96
2021/05/13 09:14:06;;;;;;;4.70;3.20;;;;;;;;;;6294897;22;20492;-96
2021/05/13 09:16:57;;;;;;;3.67;3.33;;;;;;;;;;6332079;22;20440;-96
2021/05/13 09:28:27;;;;;;;4.20;3.90;;;;;;;;;;6315913;22;20429;-95
2021/05/13 09:30:55;;;;;;;3.97;3.60;;;;;;;;;;6334104;22;20453;-96
2021/05/13 09:35:56;;;;;;;3.30;2.60;;;;;;;;;;6241136;22;20384;-94
2021/05/13 09:38:36;;;;;;;4.33;3.23;;;;;;;;;;6294322;22;20450;-96
2021/05/13 09:57:51;;;;;;;4.20;3.30;;;;;;;;;;6317897;22;1613389;-96
2021/05/13 10:00:31;;;;;;;3.43;3.13;;;;;;;;;;6369208;22;20229;-96
2021/05/13 10:02:58;;;;;;;3.30;3.00;;;;;;;;;;6371773;22;20384;-95
2021/05/13 10:05:24;;;;;;;5.70;3.50;;;;;;;;;;6367032;22;20430;-95
2021/05/13 10:07:56;;;;;;;3.10;2.80;;;;;;;;;;6364872;22;20469;-96
2021/05/13 10:16:30;;;;;;;3.20;2.93;;;;;;;;;;6335025;22;20539;-96
2021/05/13 10:18:59;;;;;;;3.00;2.80;;;;;;;;;;6275476;23;20466;-96
2021/05/13 10:21:26;;;;;;;3.20;2.90;;;;;;;;;;6277206;23;20405;-96
2021/05/13 10:23:54;;;;;;;5.27;2.83;;;;;;;;;;6275122;23;20417;-95
2021/05/13 10:26:40;;;;;;;6.63;3.00;;;;;;;;;;6268335;23;20441;-96
2021/05/13 10:29:21;;;;;;;4.27;2.93;;;;;;;;;;6275276;22;20405;-96
2021/05/13 10:32:02;;;;;;;3.30;3.00;;;;;;;;;;6249947;23;20459;-96
2021/05/13 10:34:47;;;;;;;3.03;2.73;;;;;;;;;;6271775;22;20464;-96
2021/05/13 10:40:43;;;;;;;4.23;3.47;;;;;;;;;;6271568;22;20460;-96
2021/05/13 10:43:09;;;;;;;2.70;2.47;;;;;;;;;;6208185;23;20421;-96
2021/05/13 10:45:39;;;;;;;5.00;2.93;;;;;;;;;;6263924;23;20479;-96
2021/05/13 10:48:14;;;;;;;4.67;2.87;;;;;;;;;;6269905;23;20413;-96
2021/05/13 10:50:41;;;;;;;7.17;2.97;;;;;;;;;;6275534;23;20400;-96
2021/05/13 10:53:26;;;;;;;6.80;3.13;;;;;;;;;;6244249;23;20436;-96
2021/05/13 10:59:13;;;;;;;3.23;2.93;;;;;;;;;;6262469;23;20398;-96
2021/05/13 11:01:44;;;;;;;4.00;2.93;;;;;;;;;;6256996;23;20406;-96
2021/05/13 11:04:42;;;;;;;3.33;3.03;;;;;;;;;;6267911;23;20400;-96
2021/05/13 11:07:38;;;;;;;4.07;2.80;;;;;;;;;;6177116;23;20499;-96
2021/05/13 11:10:18;;;;;;;3.30;3.00;;;;;;;;;;6214306;22;20453;-96
2021/05/13 11:12:54;;;;;;;5.03;3.33;;;;;;;;;;6265846;23;20456;-95
2021/05/13 11:18:14;;;;;;;6.73;2.80;;;;;;;;;;6261436;23;20421;-96
2021/05/13 11:21:02;;;;;;;3.10;2.80;;;;;;;;;;6267163;23;20409;-96
2021/05/13 11:23:43;;;;;;;5.70;2.77;;;;;;;;;;6267777;23;20473;-96
2021/05/13 11:26:21;;;;;;;6.07;2.93;;;;;;;;;;6266029;22;20461;-96
2021/05/13 11:29:12;;;;;;;3.40;3.07;;;;;;;;;;6266048;22;20437;-96
2021/05/13 11:31:40;;;;;;;4.73;3.10;;;;;;;;;;6267668;23;20420;-96
2021/05/13 11:39:41;;;;;;;5.00;2.70;;;;;;;;;;6263499;22;20485;-96
2021/05/13 11:42:24;;;;;;;3.07;2.77;;;;;;;;;;6266374;23;20412;-96
2021/05/13 11:45:03;;;;;;;3.20;3.00;;;;;;;;;;6258929;22;20469;-96
2021/05/13 11:47:38;;;;;;;5.40;3.20;;;;;;;;;;6267276;23;20421;-96
2021/05/13 11:50:04;;;;;;;3.40;3.10;;;;;;;;;;6261170;23;20417;-95
2021/05/13 11:52:31;;;;;;;2.90;2.70;;;;;;;;;;6262091;22;20409;-96
2021/05/13 11:54:58;;;;;;;2.90;2.70;;;;;;;;;;6267809;22;20468;-96
2021/05/13 11:57:31;;;;;;;5.00;3.20;;;;;;;;;;6266694;23;20414;-96
2021/05/13 12:00:00;;;;;;;3.50;3.20;;;;;;;;;;6263770;23;20466;-95
2021/05/13 12:02:47;;;;;;;3.37;2.80;;;;;;;;;;6264695;23;20410;-96
2021/05/13 12:05:28;;;;;;;22.47;3.50;;;;;;;;;;6233736;23;20442;-96
2021/05/13 12:10:50;;;;;;;3.03;2.70;;;;;;;;;;6247718;22;20460;-96
2021/05/13 12:13:18;;;;;;;2.90;2.60;;;;;;;;;;6265560;22;20457;-96
2021/05/13 12:16:07;;;;;;;4.57;3.00;;;;;;;;;;6269416;23;20400;-96
2021/05/13 12:18:38;;;;;;;5.73;2.93;;;;;;;;;;6264494;23;20883;-96
2021/05/13 12:21:11;;;;;;;3.80;3.30;;;;;;;;;;6253980;22;20445;-96
2021/05/13 12:26:41;;;;;;;5.73;2.87;;;;;;;;;;6260721;22;20472;-96
2021/05/13 12:29:15;;;;;;;4.17;2.83;;;;;;;;;;6266045;23;20412;-96
2021/05/13 12:31:49;;;;;;;3.47;2.83;;;;;;;;;;6267009;23;20462;-96
2021/05/13 12:34:32;;;;;;;5.67;3.10;;;;;;;;;;6257474;22;20504;-96
2021/05/13 12:36:58;;;;;;;2.80;2.60;;;;;;;;;;6265190;23;20417;-96
2021/05/13 12:39:28;;;;;;;3.00;2.70;;;;;;;;;;6257682;23;20409;-93
2021/05/13 12:41:54;;;;;;;3.17;2.87;;;;;;;;;;6257326;23;20945;-96
2021/05/13 12:44:26;;;;;;;3.93;3.30;;;;;;;;;;6261900;23;20479;-96
2021/05/13 12:46:54;;;;;;;2.70;2.50;;;;;;;;;;6262969;22;20437;-96
2021/05/13 12:49:29;;;;;;;5.93;2.57;;;;;;;;;;6264430;22;20934;-96
2021/05/13 12:52:00;;;;;;;3.50;2.50;;;;;;;;;;6256284;22;20458;-96
2021/05/13 12:57:11;;;;;;;6.50;1.80;;;;;;;;;;6257542;22;20447;-94
2021/05/13 12:59:38;;;;;;;1.83;1.70;;;;;;;;;;6260090;22;20895;-95
2021/05/13 13:02:04;;;;;;;7.00;2.00;;;;;;;;;;6260562;22;20411;-96
2021/05/13 13:04:45;;;;;;;3.43;2.00;;;;;;;;;;6259840;22;20402;-96
2021/05/13 13:07:12;;;;;;;3.23;1.90;;;;;;;;;;6260507;22;20433;-94
2021/05/13 13:09:41;;;;;;;5.53;2.00;;;;;;;;;;6265432;22;20899;-96
2021/05/13 13:12:08;;;;;;;4.13;2.03;;;;;;;;;;6259832;22;20424;-94
2021/05/13 13:14:37;;;;;;;6.60;2.00;;;;;;;;;;6261257;22;20434;-96
2021/05/13 13:17:04;;;;;;;2.73;1.87;;;;;;;;;;6260584;22;20410;-95
2021/05/13 13:19:33;;;;;;;9.87;2.40;;;;;;;;;;6261749;22;20455;-96
2021/05/13 13:25:09;;;;;;;2.30;1.77;;;;;;;;;;6263861;23;20541;-96
2021/05/13 13:27:37;;;;;;;3.10;1.77;;;;;;;;;;6262930;23;20461;-95
2021/05/13 13:30:04;;;;;;;3.77;1.87;;;;;;;;;;6265475;22;20402;-96
2021/05/13 13:32:30;;;;;;;3.57;1.50;;;;;;;;;;6266130;22;20790;-96
2021/05/13 13:35:07;;;;;;;1.87;1.67;;;;;;;;;;6267648;22;20413;-96
2021/05/13 13:37:36;;;;;;;9.33;2.80;;;;;;;;;;6266017;23;20404;-96
2021/05/13 13:40:02;;;;;;;2.00;1.80;;;;;;;;;;6266827;22;20455;-96
2021/05/13 13:42:41;;;;;;;3.43;2.00;;;;;;;;;;6264820;22;20442;-96
2021/05/13 13:45:08;;;;;;;2.90;1.90;;;;;;;;;;6266644;22;20410;-96
2021/05/13 13:47:34;;;;;;;2.93;1.83;;;;;;;;;;6266002;22;20460;-96
2021/05/13 13:50:00;;;;;;;2.20;1.93;;;;;;;;;;6262975;22;20394;-95
2021/05/13 13:52:30;;;;;;;2.33;1.80;;;;;;;;;;6259623;22;20414;-96
2021/05/13 13:54:59;;;;;;;5.10;2.40;;;;;;;;;;6261879;22;20424;-96
2021/05/13 13:57:28;;;;;;;3.47;1.97;;;;;;;;;;6264522;23;20409;-95
2021/05/13 13:59:59;;;;;;;4.10;2.03;;;;;;;;;;6283049;22;20476;-96
2021/05/13 14:02:25;;;;;;;6.63;1.93;;;;;;;;;;6289596;22;20464;-95
2021/05/13 14:04:52;;;;;;;6.23;2.57;;;;;;;;;;6294586;22;20412;-96
2021/05/13 14:07:19;;;;;;;5.90;2.00;;;;;;;;;;6288024;22;20448;-96
2021/05/13 14:09:45;;;;;;;2.67;1.70;;;;;;;;;;6293184;22;20452;-95
2021/05/13 14:12:11;;;;;;;4.07;2.20;;;;;;;;;;6294645;22;20443;-94
2021/05/13 14:20:16;;;;;;;2.70;2.10;;;;;;;;;;6276219;22;20455;-94
2021/05/13 14:22:49;;;;;;;2.20;2.00;;;;;;;;;;6291577;22;20452;-95
2021/05/13 14:27:59;;;;;;;3.33;2.00;;;;;;;;;;6296598;22;20413;-96
2021/05/13 14:30:25;;;;;;;2.10;1.90;;;;;;;;;;6295763;22;20409;-96
2021/05/13 14:32:57;;;;;;;4.77;2.30;;;;;;;;;;6268252;22;20409;-94
2021/05/13 14:35:30;;;;;;;8.80;2.70;;;;;;;;;;6293293;22;20436;-95
2021/05/13 14:37:57;;;;;;;3.60;2.10;;;;;;;;;;6295010;22;20417;-95
2021/05/13 14:40:23;;;;;;;3.17;2.50;;;;;;;;;;6289168;22;20481;-95
2021/05/13 14:42:55;;;;;;;6.60;3.00;;;;;;;;;;6297379;22;20407;-96
2021/05/13 14:45:33;;;;;;;4.47;2.53;;;;;;;;;;6303020;22;20384;-96
2021/05/13 14:48:13;;;;;;;5.27;3.07;;;;;;;;;;6296426;22;20436;-96
2021/05/13 14:50:40;;;;;;;6.33;2.70;;;;;;;;;;6291061;22;20401;-95
2021/05/13 14:53:07;;;;;;;3.43;2.90;;;;;;;;;;6297175;22;20788;-96
2021/05/13 14:55:52;;;;;;;4.70;2.60;;;;;;;;;;6289069;22;20453;-96
2021/05/13 14:58:18;;;;;;;3.03;2.70;;;;;;;;;;6258904;22;20413;-96
2021/05/13 15:00:50;;;;;;;3.83;2.80;;;;;;;;;;6285098;22;21336;-96
2021/05/13 15:03:16;;;;;;;2.87;2.67;;;;;;;;;;6285181;22;20413;-94
2021/05/13 15:05:43;;;;;;;3.47;3.17;;;;;;;;;;6287065;22;20446;-96
2021/05/13 15:08:10;;;;;;;9.67;3.57;;;;;;;;;;6287904;22;20412;-95
2021/05/13 15:10:36;;;;;;;8.40;3.90;;;;;;;;;;6290671;22;20408;-96
2021/05/13 15:13:02;;;;;;;4.40;2.67;;;;;;;;;;6285970;22;20420;-96
2021/05/13 15:15:28;;;;;;;4.40;2.40;;;;;;;;;;6269227;22;20476;-96
2021/05/13 15:17:54;;;;;;;4.70;2.70;;;;;;;;;;6250967;23;20438;-95
2021/05/13 15:20:20;;;;;;;3.27;2.73;;;;;;;;;;6250104;23;20398;-95
2021/05/13 15:22:48;;;;;;;2.83;2.30;;;;;;;;;;6222118;23;20444;-96
2021/05/13 15:25:14;;;;;;;7.43;2.80;;;;;;;;;;6240407;23;20846;-94
2021/05/13 15:27:41;;;;;;;5.67;2.60;;;;;;;;;;6242874;23;20452;-96
2021/05/13 15:30:07;;;;;;;3.30;2.60;;;;;;;;;;6245203;23;20444;-96
2021/05/13 15:32:34;;;;;;;4.07;2.40;;;;;;;;;;6246845;23;20422;-95
2021/05/13 15:35:00;;;;;;;2.97;2.57;;;;;;;;;;6248217;23;20406;-94
2021/05/13 15:37:26;;;;;;;3.83;2.47;;;;;;;;;;6245780;23;20424;-96
2021/05/13 15:39:54;;;;;;;3.17;2.57;;;;;;;;;;6257090;23;20409;-96
2021/05/13 15:42:20;;;;;;;4.03;3.00;;;;;;;;;;6254399;23;20425;-96
2021/05/13 15:44:46;;;;;;;5.47;2.50;;;;;;;;;;6264539;22;20417;-96
2021/05/13 15:47:33;;;;;;;4.30;2.70;;;;;;;;;;6270789;23;20445;-96
2021/05/13 15:50:00;;;;;;;4.73;2.90;;;;;;;;;;6265060;23;20997;-96
2021/05/13 15:52:36;;;;;;;6.23;2.97;;;;;;;;;;6267736;22;20405;-96
2021/05/13 15:55:25;;;;;;;5.83;3.27;;;;;;;;;;6269512;23;20413;-96
2021/05/13 15:58:09;;;;;;;4.50;2.97;;;;;;;;;;6268925;22;20536;-96
2021/05/13 16:00:36;;;;;;;3.53;3.20;;;;;;;;;;6261296;23;20440;-95
2021/05/13 16:03:04;;;;;;;3.00;2.70;;;;;;;;;;6255697;23;20445;-96
2021/05/13 16:05:30;;;;;;;2.50;2.07;;;;;;;;;;6258976;23;20413;-96
2021/05/13 16:07:56;;;;;;;2.70;2.37;;;;;;;;;;6261594;23;20432;-96
2021/05/13 16:10:29;;;;;;;3.80;2.70;;;;;;;;;;6258854;23;20410;-93
2021/05/13 16:12:58;;;;;;;2.43;2.23;;;;;;;;;;6255723;22;20449;-96
2021/05/13 16:15:25;;;;;;;3.13;2.67;;;;;;;;;;6258561;23;20469;-95
2021/05/13 16:17:57;;;;;;;2.53;2.33;;;;;;;;;;6258014;22;20433;-96
2021/05/13 16:20:23;;;;;;;2.60;2.40;;;;;;;;;;6256291;23;20440;-96
2021/05/13 16:22:49;;;;;;;2.60;2.40;;;;;;;;;;6258669;22;20418;-94
2021/05/13 16:25:16;;;;;;;3.10;1.80;;;;;;;;;;6255009;23;20414;-94
2021/05/13 16:27:43;;;;;;;3.10;2.20;;;;;;;;;;6259732;23;20461;-93
2021/05/13 16:30:18;;;;;;;4.90;2.23;;;;;;;;;;6261101;23;20398;-96
2021/05/13 16:32:44;;;;;;;2.40;1.93;;;;;;;;;;6250611;23;20498;-93
2021/05/13 16:35:10;;;;;;;3.80;2.50;;;;;;;;;;6248952;23;20419;-95
2021/05/13 16:37:36;;;;;;;4.23;2.23;;;;;;;;;;6256769;23;20413;-96
2021/05/13 16:40:03;;;;;;;4.57;2.20;;;;;;;;;;6262320;23;20456;-96
2021/05/13 16:42:32;;;;;;;3.10;2.27;;;;;;;;;;6269195;22;20424;-94
2021/05/13 16:45:08;;;;;;;3.13;2.07;;;;;;;;;;6264647;23;20409;-96
2021/05/13 16:47:36;;;;;;;3.17;2.70;;;;;;;;;;6264200;23;20467;-96
2021/05/13 16:50:05;;;;;;;4.13;2.20;;;;;;;;;;6268098;23;20410;-96
2021/05/13 16:52:32;;;;;;;5.40;2.60;;;;;;;;;;6268420;22;20422;-95
2021/05/13 16:55:50;;;;;;;3.10;2.20;;;;;;;;;;6268282;23;20424;-96
2021/05/13 16:58:19;;;;;;;3.00;2.10;;;;;;;;;;6269576;22;20414;-96
2021/05/13 17:01:06;;;;;;;2.63;1.90;;;;;;;;;;6265899;22;20414;-96
2021/05/13 17:03:33;;;;;;;2.03;1.67;;;;;;;;;;6267422;22;20477;-96
2021/05/13 17:06:32;;;;;;;3.00;2.10;;;;;;;;;;6268968;22;20444;-96
2021/05/13 17:09:03;;;;;;;5.87;2.27;;;;;;;;;;6272030;22;20444;-96
2021/05/13 17:11:33;;;;;;;2.90;2.60;;;;;;;;;;6268710;23;20477;-96
2021/05/13 17:14:02;;;;;;;4.10;2.30;;;;;;;;;;6269662;23;20412;-96
2021/05/13 17:19:04;;;;;;;3.03;2.27;;;;;;;;;;6262883;22;20418;-96
2021/05/13 17:21:30;;;;;;;6.00;2.40;;;;;;;;;;6253851;23;20417;-94
2021/05/13 17:23:56;;;;;;;5.27;2.50;;;;;;;;;;6253783;23;20416;-94
2021/05/13 17:26:22;;;;;;;5.53;2.30;;;;;;;;;;6254015;23;20457;-92
2021/05/13 17:28:49;;;;;;;3.23;2.50;;;;;;;;;;6259463;23;20411;-96
2021/05/13 17:31:15;;;;;;;4.20;2.40;;;;;;;;;;6257951;23;20468;-96
2021/05/13 17:33:41;;;;;;;3.43;3.10;;;;;;;;;;6255563;23;20421;-95